RS-0014 weather

Progar Airstrip
Progar, Srem, Serbia

Public forecast

Using degrees Celsius for public forecast. Weather courtesy of forecast.io.

METAR (pilot weather report)

Closest report is Belgrade Nikola Tesla Airport, 8.1 nm (15.0 km) NE. Retrieved 2019/06/27 11:30 UTC (0 seconds ago):

LYBE 271130Z 24005KT 200V280 9999 SCT045 31/20 Q1018 NOSIG

TAF (pilot weather forecast)

Closest forecast is Belgrade Nikola Tesla Airport, 8.1 nm (15.0 km) NE. Retrieved 2019/06/27 06:21 UTC (5 hours ago):

TAF LYBE 270500Z 2706/2806 32005KT CAVOK TX33/2713Z TN18/2803Z BECMG 2717/2719 34015KT TEMPO 2720/2724 36020G30KT 5000 TSRA SCT030CB SCT033